createdAt,value
2019-04-27T00:03:23.420Z,2.07
2019-04-27T00:08:45.704Z,1.87
2019-04-27T00:14:00.201Z,1.53
2019-04-27T00:19:27.283Z,2.60
2019-04-27T00:24:55.828Z,2.40
2019-04-27T00:30:10.761Z,2.50
2019-04-27T00:35:29.002Z,3.10
2019-04-27T00:40:48.422Z,4.27
2019-04-27T00:46:22.944Z,2.10
2019-04-27T00:51:35.111Z,2.50
2019-04-27T00:57:03.198Z,2.53
2019-04-27T01:02:23.375Z,1.83
2019-04-27T01:07:34.088Z,1.77
2019-04-27T01:12:45.705Z,1.83
2019-04-27T01:18:20.680Z,1.70
2019-04-27T01:23:40.899Z,2.77
2019-04-27T01:29:16.188Z,2.13
2019-04-27T01:34:26.466Z,2.83
2019-04-27T01:39:38.811Z,1.50
2019-04-27T01:44:53.581Z,1.97
2019-04-27T01:50:06.214Z,2.23
2019-04-27T01:55:18.901Z,2.63
2019-04-27T02:01:11.271Z,1.77
2019-04-27T02:06:27.459Z,1.40
2019-04-27T02:11:41.642Z,2.50
2019-04-27T02:16:55.519Z,1.50
2019-04-27T02:22:13.862Z,1.30
2019-04-27T02:27:30.111Z,1.60
2019-04-27T02:32:55.569Z,1.43
2019-04-27T02:38:12.813Z,1.67
2019-04-27T02:43:54.527Z,1.93
2019-04-27T02:49:07.205Z,1.70
2019-04-27T02:54:40.328Z,1.67
2019-04-27T02:59:55.638Z,7.17
2019-04-27T03:05:12.703Z,2.00
2019-04-27T03:10:23.512Z,1.97
2019-04-27T03:15:52.865Z,1.43
2019-04-27T03:21:14.228Z,2.40
2019-04-27T03:32:13.605Z,2.40
2019-04-27T03:37:32.407Z,2.90
2019-04-27T03:42:46.689Z,1.67
2019-04-27T03:48:20.826Z,1.40
2019-04-27T03:54:05.920Z,1.83
2019-04-27T03:59:55.614Z,1.60
2019-04-27T04:05:32.391Z,1.90
2019-04-27T04:10:59.764Z,1.40
2019-04-27T04:16:31.545Z,2.20
2019-04-27T04:21:43.291Z,2.37
2019-04-27T04:27:00.316Z,1.83
2019-04-27T04:32:12.136Z,2.90
2019-04-27T04:37:25.004Z,2.57
2019-04-27T04:42:43.084Z,2.27
2019-04-27T04:48:05.718Z,2.80
2019-04-27T04:53:14.314Z,2.90
2019-04-27T04:58:30.378Z,3.20
2019-04-27T05:04:32.030Z,1.90
2019-04-27T05:09:45.850Z,2.93
2019-04-27T05:15:04.578Z,3.13
2019-04-27T05:20:34.433Z,2.53
2019-04-27T05:25:52.159Z,2.67
2019-04-27T05:31:29.361Z,2.77
2019-04-27T05:36:48.927Z,2.23
2019-04-27T05:42:01.968Z,2.80
2019-04-27T05:47:53.224Z,1.93
2019-04-27T05:53:18.955Z,1.90
2019-04-27T05:58:46.869Z,2.67
2019-04-27T06:03:59.912Z,2.93
2019-04-27T06:09:13.810Z,2.40
2019-04-27T06:14:30.474Z,3.27
2019-04-27T06:19:46.005Z,3.03
2019-04-27T06:25:00.543Z,3.33
2019-04-27T06:30:23.375Z,2.40
2019-04-27T06:35:42.978Z,2.77
2019-04-27T06:41:09.976Z,2.53
2019-04-27T06:46:28.778Z,2.97
2019-04-27T06:51:41.179Z,2.37
2019-04-27T06:56:59.280Z,3.00
2019-04-27T07:02:12.064Z,1.85
2019-04-27T07:07:23.721Z,2.72
2019-04-27T07:18:12.777Z,2.93
2019-04-27T07:23:45.585Z,1.67
2019-04-27T07:28:59.412Z,2.37
2019-04-27T07:34:14.658Z,2.27
2019-04-27T07:39:25.617Z,1.90
2019-04-27T07:44:53.985Z,2.00
2019-04-27T07:50:07.460Z,2.13
2019-04-27T07:55:20.426Z,1.70
2019-04-27T08:00:31.478Z,1.95
2019-04-27T08:11:52.763Z,1.40
2019-04-27T08:17:28.354Z,2.50
2019-04-27T08:22:41.149Z,2.93
2019-04-27T08:28:01.968Z,3.03
2019-04-27T08:33:13.920Z,2.37
2019-04-27T08:38:31.658Z,2.87
2019-04-27T08:43:42.800Z,2.87
2019-04-27T08:48:58.689Z,2.07
2019-04-27T08:54:14.979Z,3.03
2019-04-27T08:59:30.364Z,2.03
2019-04-27T09:05:05.070Z,3.27
2019-04-27T09:10:24.524Z,3.17
2019-04-27T09:15:41.514Z,4.03
2019-04-27T09:20:59.981Z,3.47
2019-04-27T09:26:12.923Z,4.70
2019-04-27T09:31:23.462Z,5.33
2019-04-27T09:36:37.590Z,6.40
2019-04-27T09:41:57.208Z,5.87
2019-04-27T09:47:10.041Z,4.43
2019-04-27T09:52:28.704Z,5.22
2019-04-27T09:57:41.926Z,7.13
2019-04-27T10:02:58.678Z,5.23
2019-04-27T10:08:30.713Z,7.60
2019-04-27T10:14:05.928Z,6.50
2019-04-27T10:19:28.277Z,8.23
2019-04-27T10:24:39.874Z,6.27
2019-04-27T10:29:50.047Z,6.47
2019-04-27T10:35:02.464Z,6.63
2019-04-27T10:40:16.184Z,5.03
2019-04-27T10:45:26.842Z,7.73
2019-04-27T10:50:43.029Z,6.30
2019-04-27T10:55:56.562Z,5.03
2019-04-27T11:01:11.036Z,7.97
2019-04-27T11:06:50.704Z,7.23
2019-04-27T11:12:07.186Z,8.07
2019-04-27T11:17:17.482Z,7.17
2019-04-27T11:22:31.172Z,6.40
2019-04-27T11:27:50.566Z,8.00
2019-04-27T11:33:06.086Z,5.67
2019-04-27T11:38:14.384Z,7.85
2019-04-27T11:43:46.483Z,8.50
2019-04-27T11:48:59.686Z,7.70
2019-04-27T11:54:33.026Z,5.87
2019-04-27T12:00:07.470Z,6.10
2019-04-27T12:05:22.811Z,8.20
2019-04-27T12:10:40.854Z,7.77
2019-04-27T12:15:56.835Z,6.90
2019-04-27T12:21:08.926Z,6.03
2019-04-27T12:26:46.085Z,6.57
2019-04-27T12:32:02.818Z,6.70
2019-04-27T12:37:19.191Z,4.92
2019-04-27T12:42:32.335Z,5.03
2019-04-27T12:47:48.421Z,4.57
2019-04-27T12:53:09.837Z,4.62
2019-04-27T12:58:50.855Z,4.43
2019-04-27T13:04:04.109Z,4.03
2019-04-27T13:09:17.636Z,2.77
2019-04-27T13:14:29.885Z,3.20
2019-04-27T13:19:42.172Z,3.12
2019-04-27T13:25:01.119Z,3.67
2019-04-27T13:30:20.449Z,2.92
2019-04-27T13:35:35.472Z,4.12
2019-04-27T13:41:10.341Z,5.53
2019-04-27T13:47:00.444Z,4.03
2019-04-27T13:52:26.381Z,3.00
2019-04-27T13:57:56.506Z,3.43
2019-04-27T14:03:28.708Z,3.27
2019-04-27T14:08:39.103Z,2.43
2019-04-27T14:13:52.280Z,4.75
2019-04-27T14:19:28.740Z,3.40
2019-04-27T14:24:48.851Z,6.20
2019-04-27T14:35:33.019Z,5.03
2019-04-27T14:41:11.321Z,5.23
2019-04-27T14:46:24.048Z,5.40
2019-04-27T14:51:46.403Z,4.30
2019-04-27T14:56:56.104Z,4.92
2019-04-27T15:02:08.688Z,4.20
2019-04-27T15:07:18.216Z,5.97
2019-04-27T15:13:09.010Z,5.20
2019-04-27T15:18:29.872Z,4.85
2019-04-27T15:23:41.406Z,6.10
2019-04-27T15:35:00.529Z,4.95
2019-04-27T15:40:35.854Z,3.47
2019-04-27T15:45:53.369Z,6.10
2019-04-27T15:51:29.195Z,6.20
2019-04-27T15:56:58.915Z,5.90
2019-04-27T16:02:15.934Z,5.53
2019-04-27T16:07:33.990Z,6.43
2019-04-27T16:13:05.814Z,7.63
2019-04-27T16:18:05.508Z,4.87
2019-04-27T16:23:13.157Z,5.90
2019-04-27T16:28:28.849Z,7.50
2019-04-27T16:34:02.849Z,5.47
2019-04-27T16:39:18.128Z,2.30
2019-04-27T16:44:49.506Z,4.37
2019-04-27T16:50:08.444Z,4.03
2019-04-27T16:55:23.425Z,3.97
2019-04-27T17:00:40.855Z,7.93
2019-04-27T17:05:53.131Z,4.77
2019-04-27T17:11:11.395Z,4.97
2019-04-27T17:16:49.287Z,5.60
2019-04-27T17:22:03.885Z,3.80
2019-04-27T17:27:29.010Z,5.37
2019-04-27T17:33:11.781Z,4.27
2019-04-27T17:38:47.360Z,7.20
2019-04-27T17:43:59.440Z,10.13
2019-04-27T17:49:33.980Z,8.23
2019-04-27T17:54:47.527Z,6.40
2019-04-27T18:00:03.446Z,5.40
2019-04-27T18:05:17.870Z,5.17
2019-04-27T18:10:36.261Z,5.37
2019-04-27T18:15:52.976Z,4.53
2019-04-27T18:21:07.236Z,6.07
2019-04-27T18:26:27.797Z,4.83
2019-04-27T18:31:46.428Z,3.10
2019-04-27T18:36:59.147Z,4.20
2019-04-27T18:42:18.890Z,3.40
2019-04-27T18:47:35.316Z,3.67
2019-04-27T18:52:58.168Z,3.37
2019-04-27T18:58:11.808Z,1.43
2019-04-27T19:03:22.385Z,3.57
2019-04-27T19:08:35.798Z,2.87
2019-04-27T19:13:45.609Z,4.20
2019-04-27T19:19:12.291Z,2.07
2019-04-27T19:24:23.619Z,2.83
2019-04-27T19:29:47.981Z,3.47
2019-04-27T19:35:19.941Z,2.17
2019-04-27T19:41:10.267Z,4.13
2019-04-27T19:46:22.355Z,3.07
2019-04-27T19:51:29.465Z,3.73
2019-04-27T19:56:38.395Z,4.60
2019-04-27T20:02:18.508Z,3.40
2019-04-27T20:07:32.397Z,2.17
2019-04-27T20:12:56.040Z,3.73
2019-04-27T20:18:10.830Z,3.03
2019-04-27T20:23:22.424Z,3.17
2019-04-27T20:28:32.449Z,2.83
2019-04-27T20:33:42.789Z,1.83
2019-04-27T20:39:05.740Z,3.67
2019-04-27T20:44:17.382Z,2.40
2019-04-27T20:49:30.901Z,4.08
2019-04-27T20:54:44.863Z,3.53
2019-04-27T21:00:17.943Z,4.90
2019-04-27T21:05:51.077Z,5.07
2019-04-27T21:11:05.731Z,2.53
2019-04-27T21:16:37.252Z,4.22
2019-04-27T21:21:53.519Z,2.87
2019-04-27T21:27:13.886Z,4.43
2019-04-27T21:32:43.348Z,4.20
2019-04-27T21:38:14.409Z,5.33
2019-04-27T21:43:43.806Z,5.03
2019-04-27T21:48:54.988Z,5.33
2019-04-27T21:54:14.611Z,4.30
2019-04-27T21:59:30.920Z,4.67
2019-04-27T22:04:49.488Z,6.43
2019-04-27T22:10:07.214Z,5.07
2019-04-27T22:15:22.558Z,5.43
2019-04-27T22:20:38.797Z,5.53
2019-04-27T22:25:54.142Z,4.87
2019-04-27T22:31:12.420Z,4.47
2019-04-27T22:36:28.173Z,3.77
2019-04-27T22:41:48.839Z,4.27
2019-04-27T22:47:01.640Z,3.30
2019-04-27T22:52:23.294Z,3.20
2019-04-27T22:58:11.719Z,4.03
2019-04-27T23:03:46.724Z,4.17
2019-04-27T23:09:01.657Z,3.40
2019-04-27T23:14:18.823Z,4.03
2019-04-27T23:19:32.556Z,4.07
2019-04-27T23:24:42.655Z,3.83
2019-04-27T23:29:58.473Z,3.17
2019-04-27T23:35:09.932Z,3.17
2019-04-27T23:40:24.392Z,3.87
2019-04-27T23:45:34.852Z,5.07
2019-04-27T23:50:49.320Z,3.93
2019-04-27T23:56:01.895Z,4.03
